Time;durP1;ratioP1;P1;durP2;ratioP2;P2;SDS_P1;SDS_P2;PMS_P1;PMS_P2;Temp;Humidity;BMP_temperature;BMP_pressure;BME280_temperature;BME280_humidity;BME280_pressure;Samples;Min_cycle;Max_cycle;Signal;HPM_P1;HPM_P2
2023/04/09 00:00:20;;;;;;;33.88;24.27;;;;;;;11.86;60.88;102488.03;5116734;28;20119;-69
2023/04/09 00:02:49;;;;;;;38.33;26.15;;;;;;;11.87;60.75;102484.31;5118463;28;20134;-68
2023/04/09 00:05:17;;;;;;;34.53;25.00;;;;;;;11.86;60.84;102479.97;5109989;28;20039;-68
2023/04/09 00:07:45;;;;;;;33.35;24.67;;;;;;;11.86;60.76;102481.81;5115871;28;20035;-67
2023/04/09 00:10:13;;;;;;;33.28;24.30;;;;;;;11.86;60.73;102479.97;5118912;28;20048;-66
2023/04/09 00:12:40;;;;;;;31.83;24.10;;;;;;;11.84;60.70;102475.78;5114387;28;20163;-66
2023/04/09 00:15:09;;;;;;;40.03;26.75;;;;;;;11.85;60.85;102478.28;5117925;28;20107;-66
2023/04/09 00:17:48;;;;;;;38.05;27.65;;;;;;;11.84;60.82;102473.94;5116535;28;20134;-67
2023/04/09 00:20:16;;;;;;;33.72;25.38;;;;;;;11.84;60.99;102475.78;5119246;28;20047;-67
2023/04/09 00:22:44;;;;;;;37.67;27.20;;;;;;;11.83;61.13;102471.44;5116793;28;20126;-67
2023/04/09 00:25:12;;;;;;;37.92;27.45;;;;;;;11.83;61.03;102466.03;5120487;28;20067;-67
2023/04/09 00:27:39;;;;;;;37.03;28.48;;;;;;;11.83;60.91;102464.19;5116572;28;20284;-67
2023/04/09 00:30:10;;;;;;;35.63;25.88;;;;;;;11.83;61.06;102472.25;5111822;28;20130;-67
2023/04/09 00:32:38;;;;;;;40.10;27.83;;;;;;;11.73;61.08;102448.28;5120280;28;20040;-67
2023/04/09 00:35:08;;;;;;;40.13;29.45;;;;;;;11.81;60.93;102451.94;5120309;28;20105;-67
2023/04/09 00:37:36;;;;;;;39.17;27.77;;;;;;;11.81;60.96;102454.63;5119410;28;20071;-67
2023/04/09 00:40:04;;;;;;;39.72;28.60;;;;;;;11.81;61.20;102454.63;5120404;28;20075;-67
2023/04/09 00:42:32;;;;;;;41.40;29.48;;;;;;;11.81;61.05;102455.44;5118209;28;20048;-68
2023/04/09 00:45:00;;;;;;;36.55;27.13;;;;;;;11.81;61.12;102457.31;5117209;28;20044;-67
2023/04/09 00:47:29;;;;;;;36.95;27.45;;;;;;;11.80;61.20;102453.78;5113304;28;20063;-67
2023/04/09 00:49:58;;;;;;;36.35;27.25;;;;;;;11.80;61.32;102461.03;5120074;28;20058;-67
2023/04/09 00:52:29;;;;;;;37.47;26.83;;;;;;;11.80;61.10;102461.03;5118054;28;20054;-68
2023/04/09 00:54:58;;;;;;;34.45;25.77;;;;;;;11.78;61.10;102452.31;5118792;28;20067;-67
2023/04/09 00:57:27;;;;;;;35.67;26.40;;;;;;;11.79;61.17;102459.34;5119542;28;20093;-68
2023/04/09 00:59:55;;;;;;;35.05;25.48;;;;;;;11.79;61.41;102459.34;5118466;28;20063;-67
2023/04/09 01:02:23;;;;;;;34.10;25.17;;;;;;;11.77;61.39;102454.16;5113251;28;20107;-67
2023/04/09 01:04:51;;;;;;;34.13;24.60;;;;;;;11.68;61.18;102433.72;5115709;28;20082;-67
2023/04/09 01:07:27;;;;;;;33.13;25.02;;;;;;;11.76;61.48;102455.16;5114941;28;20123;-67
2023/04/09 01:10:02;;;;;;;34.28;25.75;;;;;;;11.76;61.46;102449.78;5112763;28;20047;-67
2023/04/09 01:12:36;;;;;;;35.55;25.15;;;;;;;11.76;61.17;102448.94;5119033;28;20048;-67
2023/04/09 01:15:07;;;;;;;34.30;24.83;;;;;;;11.73;61.28;102445.59;5110988;28;20119;-67
2023/04/09 01:17:44;;;;;;;35.13;24.20;;;;;;;11.74;61.26;102438.34;5117876;28;20575;-68
2023/04/09 01:20:17;;;;;;;31.15;23.58;;;;;;;11.72;61.34;102438.53;5114903;28;20136;-67
2023/04/09 01:22:56;;;;;;;35.85;25.17;;;;;;;11.72;61.26;102437.72;5117804;28;20111;-67
2023/04/09 01:25:39;;;;;;;32.03;24.00;;;;;;;11.72;61.65;102445.78;5114536;28;20078;-67
2023/04/09 01:28:19;;;;;;;32.35;23.08;;;;;;;11.69;61.58;102433.53;5117818;28;20047;-68
2023/04/09 01:30:50;;;;;;;32.15;24.38;;;;;;;11.67;61.65;102435.59;5117722;28;20071;-67
2023/04/09 01:33:19;;;;;;;30.30;23.13;;;;;;;11.70;61.43;102437.06;5109563;28;20054;-68
2023/04/09 01:35:49;;;;;;;32.63;22.40;;;;;;;11.70;61.61;102445.97;5116241;28;20043;-67
2023/04/09 01:38:19;;;;;;;30.75;22.30;;;;;;;11.69;61.53;102440.78;5118556;28;20050;-68
2023/04/09 01:40:48;;;;;;;27.92;21.00;;;;;;;11.69;61.56;102436.22;5119501;28;20054;-67
2023/04/09 01:43:19;;;;;;;28.98;22.48;;;;;;;11.69;61.71;102436.22;5115895;28;20099;-67
2023/04/09 01:45:48;;;;;;;29.88;21.85;;;;;;;11.68;61.71;102437.25;5118058;28;20472;-67
2023/04/09 01:48:16;;;;;;;34.53;21.92;;;;;;;11.68;61.65;102437.25;5119895;28;20047;-67
2023/04/09 01:50:44;;;;;;;29.50;22.35;;;;;;;11.67;61.78;102432.91;5113358;28;20040;-68
2023/04/09 01:53:13;;;;;;;33.00;22.90;;;;;;;11.67;61.68;102435.59;5119438;28;20055;-67
2023/04/09 01:55:40;;;;;;;31.75;21.80;;;;;;;11.67;61.83;102438.28;5114310;28;20085;-67
2023/04/09 01:58:08;;;;;;;31.25;22.17;;;;;;;11.65;61.99;102432.25;5119082;28;20592;-67
2023/04/09 02:00:39;;;;;;;29.98;21.92;;;;;;;11.66;62.03;102435.78;5114963;28;20040;-66
2023/04/09 02:03:11;;;;;;;33.15;22.73;;;;;;;11.65;61.75;102436.81;5123089;28;20123;-67
2023/04/09 02:05:44;;;;;;;31.85;22.45;;;;;;;11.61;61.72;102424.75;5116519;28;20036;-67
2023/04/09 02:08:16;;;;;;;31.00;22.10;;;;;;;11.64;61.79;102430.56;5120569;28;20075;-67
2023/04/09 02:10:52;;;;;;;32.00;23.48;;;;;;;11.65;62.08;102431.41;5123533;28;20054;-68
2023/04/09 02:13:20;;;;;;;28.55;21.33;;;;;;;11.65;62.12;102436.81;5117846;28;20094;-67
2023/04/09 02:15:51;;;;;;;35.72;24.85;;;;;;;11.64;62.05;102430.56;5121458;28;20412;-67
2023/04/09 02:18:23;;;;;;;34.00;23.55;;;;;;;11.65;62.40;102436.81;5120031;28;20075;-67
2023/04/09 02:20:52;;;;;;;33.53;23.45;;;;;;;11.65;62.29;102426.03;5122606;28;20044;-67
2023/04/09 02:23:20;;;;;;;32.60;23.88;;;;;;;11.61;61.95;102416.66;5119149;28;20040;-67
2023/04/09 02:25:48;;;;;;;29.90;22.27;;;;;;;11.64;62.15;102425.19;5117222;28;20457;-67
2023/04/09 02:28:16;;;;;;;30.42;22.75;;;;;;;11.62;61.93;102419.16;5120231;28;20062;-67
2023/04/09 02:30:44;;;;;;;33.08;23.08;;;;;;;11.61;62.35;102413.97;5121549;28;20044;-67
2023/04/09 02:33:13;;;;;;;33.88;22.75;;;;;;;11.62;62.20;102415.63;5121338;28;20043;-67
2023/04/09 02:35:41;;;;;;;36.25;23.38;;;;;;;11.63;62.32;102418.13;5120200;28;20050;-67
2023/04/09 02:38:12;;;;;;;35.78;24.55;;;;;;;11.63;62.22;102425.38;5121078;28;20048;-67
2023/04/09 02:40:40;;;;;;;34.40;24.60;;;;;;;11.62;62.67;102421.84;5118278;28;20111;-67
2023/04/09 02:43:08;;;;;;;33.72;24.02;;;;;;;11.63;62.14;102420.84;5121515;28;20075;-67
2023/04/09 02:45:36;;;;;;;32.15;23.35;;;;;;;11.63;62.43;102420.00;5112535;28;20391;-67
2023/04/09 02:48:05;;;;;;;34.47;24.33;;;;;;;11.59;62.31;102414.16;5118292;28;20114;-67
2023/04/09 02:50:34;;;;;;;34.78;23.50;;;;;;;11.60;62.28;102421.22;5123244;28;20130;-67
2023/04/09 02:53:01;;;;;;;32.63;22.88;;;;;;;11.61;62.36;102419.34;5114932;28;20087;-67
2023/04/09 02:55:29;;;;;;;30.70;23.33;;;;;;;11.59;62.60;102413.31;5114646;28;20110;-67
2023/04/09 02:57:57;;;;;;;32.67;22.45;;;;;;;11.59;62.54;102416.00;5117993;28;20056;-67
2023/04/09 03:00:25;;;;;;;31.65;23.67;;;;;;;11.58;62.33;102415.19;5118579;28;20043;-67
2023/04/09 03:02:52;;;;;;;33.22;22.88;;;;;;;11.58;62.43;102412.50;5119234;28;20046;-67
2023/04/09 03:05:20;;;;;;;31.58;22.63;;;;;;;11.56;62.26;102406.47;5121845;28;20055;-67
2023/04/09 03:07:50;;;;;;;37.38;24.65;;;;;;;11.49;62.33;102394.78;5114587;28;20131;-67
2023/04/09 03:10:17;;;;;;;33.42;23.08;;;;;;;11.56;62.27;102411.84;5120869;28;20090;-67
2023/04/09 03:12:46;;;;;;;33.13;22.55;;;;;;;11.54;62.38;102396.91;5117330;28;20071;-68
2023/04/09 03:15:14;;;;;;;33.17;23.73;;;;;;;11.55;62.39;102406.66;5119373;28;20111;-67
2023/04/09 03:17:42;;;;;;;33.17;23.45;;;;;;;11.55;62.20;102395.88;5116468;28;20423;-68
2023/04/09 03:20:10;;;;;;;34.65;24.88;;;;;;;11.54;62.25;102402.28;5115487;28;20043;-65
2023/04/09 03:22:38;;;;;;;33.15;23.90;;;;;;;11.52;62.32;102399.78;5119415;28;20101;-67
2023/04/09 03:25:08;;;;;;;34.33;23.38;;;;;;;11.50;62.51;102393.75;5120676;28;20051;-67
2023/04/09 03:27:36;;;;;;;31.75;23.27;;;;;;;11.51;62.38;102397.28;5119732;28;20055;-67
2023/04/09 03:30:05;;;;;;;36.80;24.05;;;;;;;11.49;62.39;102386.69;5115347;28;21549;-67
2023/04/09 03:32:32;;;;;;;34.15;24.00;;;;;;;11.49;62.18;102393.94;5119236;28;20074;-66
2023/04/09 03:35:00;;;;;;;34.85;23.67;;;;;;;11.48;62.28;102398.50;5117592;28;20157;-67
2023/04/09 03:37:28;;;;;;;35.25;21.95;;;;;;;11.47;62.19;102394.13;5119783;28;20048;-67
2023/04/09 03:39:56;;;;;;;34.17;24.33;;;;;;;11.46;62.51;102388.94;5122313;27;20055;-67
2023/04/09 03:42:25;;;;;;;33.83;23.65;;;;;;;11.45;62.36;102382.72;5116070;28;20075;-67
2023/04/09 03:44:53;;;;;;;32.13;23.45;;;;;;;11.44;62.49;102391.81;5116618;28;20075;-67
2023/04/09 03:47:21;;;;;;;33.10;23.60;;;;;;;11.43;62.25;102376.69;5120249;28;20501;-67
2023/04/09 03:49:49;;;;;;;34.05;22.88;;;;;;;11.42;62.31;102388.50;5119069;28;20056;-67
2023/04/09 03:52:16;;;;;;;32.83;23.65;;;;;;;11.43;62.40;102392.84;5117808;28;20071;-68
2023/04/09 03:54:44;;;;;;;31.75;23.25;;;;;;;11.40;62.39;102391.38;5120335;28;20057;-68
2023/04/09 03:57:12;;;;;;;32.97;23.80;;;;;;;11.39;62.25;102381.63;5117043;28;20051;-67
2023/04/09 03:59:41;;;;;;;34.03;23.65;;;;;;;11.39;62.43;102388.88;5120213;28;20107;-68
2023/04/09 04:02:09;;;;;;;32.47;23.23;;;;;;;11.37;62.40;102383.66;5119369;28;20056;-68
2023/04/09 04:04:36;;;;;;;35.58;24.13;;;;;;;11.37;62.25;102386.38;5118342;28;20039;-68
2023/04/09 04:07:04;;;;;;;37.72;23.67;;;;;;;11.37;62.20;102391.75;5119508;28;20052;-68
2023/04/09 04:09:32;;;;;;;31.60;22.58;;;;;;;11.37;62.28;102389.06;5112629;28;20460;-68
2023/04/09 04:12:01;;;;;;;32.78;22.92;;;;;;;11.37;62.27;102390.91;5111589;28;20445;-67
2023/04/09 04:14:28;;;;;;;34.95;24.05;;;;;;;11.36;62.21;102391.94;5113455;28;20040;-67
2023/04/09 04:16:58;;;;;;;32.65;22.45;;;;;;;11.35;62.36;102398.34;5115502;28;20138;-66
2023/04/09 04:19:25;;;;;;;33.28;23.10;;;;;;;11.34;62.40;102391.28;5118490;28;20055;-68
2023/04/09 04:21:53;;;;;;;32.50;22.95;;;;;;;11.35;62.39;102392.97;5113991;28;20044;-67
2023/04/09 04:24:21;;;;;;;33.20;23.02;;;;;;;11.34;62.20;102386.75;5116776;28;20073;-68
2023/04/09 04:26:48;;;;;;;34.67;23.35;;;;;;;11.33;62.24;102378.84;5119464;28;20054;-67
2023/04/09 04:29:16;;;;;;;31.80;22.98;;;;;;;11.34;62.33;102381.34;5117461;28;20062;-67
2023/04/09 04:31:44;;;;;;;35.03;23.25;;;;;;;11.33;62.34;102384.25;5114755;28;20135;-67
2023/04/09 04:34:13;;;;;;;33.00;23.83;;;;;;;11.31;62.42;102388.97;5115463;28;21009;-66
2023/04/09 04:36:41;;;;;;;31.75;22.88;;;;;;;11.31;62.26;102388.97;5111953;28;20040;-66
2023/04/09 04:39:09;;;;;;;32.85;22.35;;;;;;;11.30;62.22;102384.63;5118452;28;20039;-67
2023/04/09 04:41:36;;;;;;;30.70;22.63;;;;;;;11.29;62.40;102382.94;5114383;28;20044;-66
2023/04/09 04:44:04;;;;;;;33.47;22.98;;;;;;;11.28;62.16;102383.97;5118627;28;20043;-67
2023/04/09 04:46:32;;;;;;;30.95;22.92;;;;;;;11.29;62.01;102391.84;5109565;28;20044;-66
2023/04/09 04:49:00;;;;;;;33.60;22.52;;;;;;;11.27;62.13;102395.75;5113931;28;20067;-66
2023/04/09 04:51:30;;;;;;;36.28;22.33;;;;;;;11.24;62.18;102390.75;5112208;28;20047;-66
2023/04/09 04:53:58;;;;;;;32.72;21.75;;;;;;;11.17;62.01;102379.06;5118018;28;20044;-66
2023/04/09 04:56:26;;;;;;;33.70;23.77;;;;;;;11.24;62.08;102390.75;5116350;28;20046;-67
2023/04/09 04:58:53;;;;;;;37.50;23.30;;;;;;;11.22;62.13;102392.78;5115761;28;20083;-66
2023/04/09 05:01:21;;;;;;;33.25;22.45;;;;;;;11.21;62.11;102391.97;5112246;28;20051;-66
2023/04/09 05:03:49;;;;;;;33.63;22.60;;;;;;;11.19;61.88;102396.69;5117395;28;20628;-66
2023/04/09 05:06:17;;;;;;;31.50;21.45;;;;;;;11.19;61.98;102396.69;4406201;28;10000723;-68
2023/04/09 05:08:46;;;;;;;30.00;21.55;;;;;;;11.08;62.20;102381.03;5113774;28;20655;-67
2023/04/09 05:11:15;;;;;;;31.20;21.10;;;;;;;11.14;62.02;102391.03;5116136;28;20585;-67
2023/04/09 05:13:43;;;;;;;31.75;22.35;;;;;;;11.15;61.88;102389.19;5113724;28;20454;-68
2023/04/09 05:16:16;;;;;;;31.35;20.92;;;;;;;11.12;61.77;102393.09;5109357;28;20044;-67
2023/04/09 05:18:44;;;;;;;32.35;21.08;;;;;;;11.09;61.96;102388.91;5109461;28;20052;-67
2023/04/09 05:21:12;;;;;;;31.58;21.73;;;;;;;11.09;61.78;102388.91;5112451;28;20123;-67
2023/04/09 05:23:40;;;;;;;31.52;21.30;;;;;;;11.10;61.72;102387.06;5115692;28;20412;-67
2023/04/09 05:26:09;;;;;;;30.88;21.33;;;;;;;11.07;61.86;102392.81;5113198;28;20078;-67
2023/04/09 05:28:37;;;;;;;38.00;21.90;;;;;;;11.05;61.75;102382.25;5115276;28;20047;-67
2023/04/09 05:31:09;;;;;;;29.73;20.45;;;;;;;11.06;61.79;102391.16;5115252;28;20054;-67
2023/04/09 05:33:37;;;;;;;32.95;20.23;;;;;;;11.04;61.83;102388.66;5110576;28;20061;-68
2023/04/09 05:36:06;;;;;;;32.22;20.88;;;;;;;11.03;61.74;102392.34;5119255;28;20043;-67
2023/04/09 05:38:34;;;;;;;29.52;20.40;;;;;;;11.03;61.81;102386.13;5112316;28;20107;-68
2023/04/09 05:41:02;;;;;;;30.13;21.25;;;;;;;11.00;61.66;102384.66;5118973;28;20062;-67
2023/04/09 05:43:31;;;;;;;27.75;19.60;;;;;;;10.99;61.65;102383.00;5117865;28;20640;-67
2023/04/09 05:45:58;;;;;;;27.38;19.35;;;;;;;10.99;61.65;102385.69;5115246;28;20101;-68
2023/04/09 05:48:26;;;;;;;28.08;19.70;;;;;;;10.97;61.77;102379.66;5119078;28;20079;-67
2023/04/09 05:50:54;;;;;;;31.13;19.65;;;;;;;10.97;61.63;102382.34;5109177;28;20094;-68
2023/04/09 05:53:23;;;;;;;30.25;20.02;;;;;;;10.96;61.59;102386.06;5117826;28;20101;-67
2023/04/09 05:55:50;;;;;;;32.17;21.10;;;;;;;10.95;61.60;102389.75;5117962;28;20043;-69
2023/04/09 05:58:18;;;;;;;31.02;20.90;;;;;;;10.95;61.74;102388.94;5116412;28;20467;-69
2023/04/09 06:00:50;;;;;;;29.80;20.98;;;;;;;10.95;61.56;102391.63;5119365;28;20263;-66
2023/04/09 06:03:18;;;;;;;28.83;19.85;;;;;;;10.94;61.65;102392.63;5117885;28;20052;-65
2023/04/09 06:05:47;;;;;;;31.63;19.05;;;;;;;10.88;61.46;102382.63;5119176;28;20048;-67
2023/04/09 06:08:15;;;;;;;29.88;20.38;;;;;;;10.93;61.71;102394.50;5112129;28;20039;-68
2023/04/09 06:10:43;;;;;;;30.08;19.75;;;;;;;10.94;61.59;102395.34;5114440;28;20493;-68
2023/04/09 06:13:10;;;;;;;30.83;20.83;;;;;;;10.95;61.81;102397.00;5115484;28;20090;-70
2023/04/09 06:15:38;;;;;;;31.30;19.30;;;;;;;10.96;61.55;102404.88;5119164;28;20075;-67
2023/04/09 06:18:09;;;;;;;29.88;19.77;;;;;;;10.97;61.54;102401.16;5106075;28;20343;-66
2023/04/09 06:20:37;;;;;;;30.58;19.55;;;;;;;10.99;61.61;102409.06;5094558;28;20090;-67
2023/04/09 06:23:05;;;;;;;30.90;20.85;;;;;;;11.00;61.42;102403.50;5092894;28;20040;-67
2023/04/09 06:25:32;;;;;;;31.30;19.52;;;;;;;11.01;61.70;102407.84;5100406;28;20503;-69
2023/04/09 06:28:00;;;;;;;29.00;19.85;;;;;;;11.02;61.47;102409.53;5097967;28;20159;-65
2023/04/09 06:30:28;;;;;;;29.70;19.50;;;;;;;11.02;61.57;102404.13;5097900;28;20044;-66
2023/04/09 06:32:56;;;;;;;32.58;19.40;;;;;;;11.04;61.52;102418.25;5097505;28;20059;-66
2023/04/09 06:35:25;;;;;;;30.25;18.88;;;;;;;11.04;61.56;102412.84;5087613;28;20052;-65
2023/04/09 06:37:53;;;;;;;32.63;19.30;;;;;;;11.05;61.69;102421.75;5095921;28;20112;-65
2023/04/09 06:40:22;;;;;;;28.38;18.77;;;;;;;11.05;61.63;102416.38;5098121;28;20089;-66
2023/04/09 06:42:50;;;;;;;27.10;17.77;;;;;;;11.05;61.72;102414.53;5098525;28;20050;-66
2023/04/09 06:45:18;;;;;;;32.15;19.55;;;;;;;11.07;61.59;102417.88;5093879;28;20053;-65
2023/04/09 06:47:45;;;;;;;30.90;18.25;;;;;;;11.07;61.81;102412.47;5098034;28;20078;-66
2023/04/09 06:50:13;;;;;;;29.15;18.48;;;;;;;11.10;61.62;102416.66;5097073;28;20087;-65
2023/04/09 06:52:42;;;;;;;26.42;18.35;;;;;;;11.11;61.84;102417.50;5093772;28;20416;-66
2023/04/09 06:55:10;;;;;;;29.55;19.08;;;;;;;11.13;61.69;102421.66;5098317;28;20310;-66
2023/04/09 06:57:38;;;;;;;30.77;19.67;;;;;;;11.14;61.63;102422.50;5098641;28;20136;-66
2023/04/09 07:00:07;;;;;;;29.77;19.73;;;;;;;11.14;61.61;102423.34;5088627;28;20044;-66
2023/04/09 07:02:35;;;;;;;28.85;19.25;;;;;;;11.15;61.72;102421.47;5097169;28;20079;-66
2023/04/09 07:05:03;;;;;;;27.63;18.23;;;;;;;11.17;61.73;102430.19;5095400;28;20086;-66
2023/04/09 07:07:31;;;;;;;28.08;19.10;;;;;;;11.16;61.83;102423.97;5094134;28;20079;-67
2023/04/09 07:10:01;;;;;;;30.60;18.45;;;;;;;11.17;61.62;102427.50;5095427;28;20087;-66
2023/04/09 07:12:29;;;;;;;28.95;19.48;;;;;;;11.17;61.69;102425.66;5092447;28;20051;-67
2023/04/09 07:14:58;;;;;;;29.50;19.10;;;;;;;11.19;61.72;102422.78;5095922;28;20047;-67
2023/04/09 07:17:26;;;;;;;26.73;18.42;;;;;;;11.19;61.84;102423.59;5092148;28;20062;-67
2023/04/09 07:19:54;;;;;;;29.10;18.15;;;;;;;11.22;61.73;102425.09;5094256;28;20634;-67
2023/04/09 07:22:22;;;;;;;29.08;19.48;;;;;;;11.22;61.85;102431.31;5092331;28;20050;-66
2023/04/09 07:24:52;;;;;;;26.13;18.30;;;;;;;11.24;62.00;102431.13;5095564;28;20062;-66
2023/04/09 07:27:24;;;;;;;27.75;18.70;;;;;;;11.24;61.96;102429.25;5093949;28;20188;-66
2023/04/09 07:29:54;;;;;;;25.30;18.17;;;;;;;11.26;62.02;102427.22;5088952;28;20075;-65
2023/04/09 07:32:22;;;;;;;25.17;18.13;;;;;;;11.29;61.81;102434.09;5093953;28;20098;-64
2023/04/09 07:34:51;;;;;;;26.55;19.02;;;;;;;11.30;62.02;102436.59;5099183;28;20498;-66
2023/04/09 07:37:19;;;;;;;29.17;18.40;;;;;;;11.31;61.83;102437.44;5093392;28;20460;-66
2023/04/09 07:39:47;;;;;;;27.38;18.83;;;;;;;11.34;62.06;102434.34;5088086;28;20480;-66
2023/04/09 07:42:15;;;;;;;28.67;21.00;;;;;;;11.34;62.04;102432.50;5089627;28;20064;-66
2023/04/09 07:44:44;;;;;;;31.13;22.27;;;;;;;11.32;62.19;102429.16;5088394;28;20048;-67
2023/04/09 07:47:12;;;;;;;33.72;22.67;;;;;;;11.29;62.08;102429.53;5094320;28;20124;-66
2023/04/09 07:49:40;;;;;;;35.70;23.90;;;;;;;11.26;62.18;102429.91;5100975;28;20043;-67
2023/04/09 07:52:08;;;;;;;35.17;24.75;;;;;;;11.27;62.39;102436.13;5100043;28;20082;-64
2023/04/09 07:54:35;;;;;;;38.13;26.30;;;;;;;11.23;62.54;102424.91;5110832;28;20046;-67
2023/04/09 07:57:03;;;;;;;36.90;24.80;;;;;;;11.22;62.66;102431.31;5089072;28;20135;-67
2023/04/09 07:59:31;;;;;;;35.03;24.35;;;;;;;11.22;62.77;102431.31;5094570;28;20098;-66
2023/04/09 08:02:00;;;;;;;38.53;25.10;;;;;;;11.24;62.75;102434.66;5093073;28;20043;-66
2023/04/09 08:04:29;;;;;;;35.67;23.52;;;;;;;11.28;62.70;102432.41;5097135;28;20131;-62
2023/04/09 08:06:56;;;;;;;35.70;22.60;;;;;;;11.31;62.56;102424.81;5094113;28;20070;-68
2023/04/09 08:09:24;;;;;;;34.33;23.52;;;;;;;11.35;62.75;102428.78;5096431;28;20107;-66
2023/04/09 08:11:52;;;;;;;34.78;23.00;;;;;;;11.36;62.72;102433.16;5097099;28;20044;-65
2023/04/09 08:14:20;;;;;;;34.58;22.60;;;;;;;11.37;62.65;102428.59;5092480;28;20044;-67
2023/04/09 08:16:49;;;;;;;34.88;22.83;;;;;;;11.39;62.96;102421.16;5086626;28;20131;-65
2023/04/09 08:19:19;;;;;;;36.78;24.38;;;;;;;11.36;63.09;102427.75;5110198;28;20078;-65
2023/04/09 08:21:51;;;;;;;33.22;22.90;;;;;;;11.36;63.16;102425.06;5114888;28;20055;-68
2023/04/09 08:24:19;;;;;;;32.38;22.38;;;;;;;11.37;63.22;102415.97;5111966;28;20111;-65
2023/04/09 08:26:46;;;;;;;30.80;22.58;;;;;;;11.37;63.42;102425.91;5118503;28;20096;-66
2023/04/09 08:29:15;;;;;;;31.75;22.73;;;;;;;11.31;63.57;102414.03;5110230;28;20146;-65
2023/04/09 08:31:43;;;;;;;33.50;21.80;;;;;;;11.42;63.55;102420.78;4761691;28;10000407;-62
2023/04/09 08:34:11;;;;;;;34.78;22.13;;;;;;;11.40;63.28;102418.28;5113547;28;20551;-65
2023/04/09 08:36:41;;;;;;;35.97;21.55;;;;;;;11.38;63.76;102423.03;5115075;28;20047;-66
2023/04/09 08:39:08;;;;;;;34.83;22.98;;;;;;;11.38;63.70;102423.03;5116406;28;20067;-62
2023/04/09 08:41:42;;;;;;;32.33;22.02;;;;;;;11.38;64.07;102422.19;5116964;28;20049;-67
2023/04/09 08:44:10;;;;;;;31.05;21.92;;;;;;;11.39;63.97;102423.84;5108200;28;20506;-64
2023/04/09 08:46:38;;;;;;;32.72;22.42;;;;;;;11.40;64.00;102420.16;5115949;28;20054;-68
2023/04/09 08:49:05;;;;;;;32.22;22.33;;;;;;;11.42;64.02;102418.09;5112889;28;20047;-65
2023/04/09 08:51:33;;;;;;;28.10;20.95;;;;;;;11.41;64.20;102419.97;5113075;28;20052;-68
2023/04/09 08:54:05;;;;;;;35.55;21.73;;;;;;;11.42;64.09;102415.41;5116390;28;20062;-66
2023/04/09 08:56:33;;;;;;;30.25;21.63;;;;;;;11.44;63.92;102421.44;5115294;28;20048;-64
2023/04/09 08:59:00;;;;;;;30.65;21.70;;;;;;;11.46;64.05;102419.38;5112542;28;20071;-65
2023/04/09 09:01:31;;;;;;;30.73;21.77;;;;;;;11.51;64.28;102416.13;5116362;28;20139;-66
2023/04/09 09:04:00;;;;;;;30.48;21.88;;;;;;;11.54;64.10;102421.97;5112091;28;20082;-65
2023/04/09 09:06:31;;;;;;;29.13;21.65;;;;;;;11.55;64.28;102418.25;5107891;28;20058;-63
2023/04/09 09:09:02;;;;;;;29.50;21.10;;;;;;;11.58;64.14;102419.72;5115607;28;20040;-65
2023/04/09 09:11:30;;;;;;;27.52;20.25;;;;;;;11.58;64.03;102417.88;5108333;28;20062;-64
2023/04/09 09:13:59;;;;;;;30.85;20.98;;;;;;;11.61;64.50;102424.75;5118562;28;20134;-63
2023/04/09 09:16:27;;;;;;;34.78;22.88;;;;;;;11.64;64.72;102425.19;5118561;28;20039;-69
2023/04/09 09:18:55;;;;;;;37.28;23.85;;;;;;;11.71;64.52;102420.72;5107582;28;20133;-64
2023/04/09 09:21:27;;;;;;;33.33;23.63;;;;;;;11.73;64.61;102413.28;5092491;28;20044;-64
2023/04/09 09:23:55;;;;;;;32.85;23.25;;;;;;;11.75;64.21;102421.16;5099793;28;20143;-63
2023/04/09 09:26:28;;;;;;;35.03;23.88;;;;;;;11.77;64.18;102420.97;5103770;28;20131;-62
2023/04/09 09:28:57;;;;;;;31.15;23.30;;;;;;;11.81;64.51;102412.34;5103635;28;20037;-65
2023/04/09 09:31:25;;;;;;;33.72;24.95;;;;;;;11.80;64.53;102413.38;5089222;28;20064;-65
2023/04/09 09:33:54;;;;;;;36.75;24.58;;;;;;;11.81;64.65;102406.13;5099321;28;20080;-65
2023/04/09 09:36:32;;;;;;;34.80;23.48;;;;;;;11.81;64.65;102404.28;5098556;28;20082;-65
2023/04/09 09:39:02;;;;;;;36.75;24.38;;;;;;;11.80;64.78;102397.22;5099986;28;20052;-72
2023/04/09 09:41:31;;;;;;;33.33;23.13;;;;;;;11.85;64.68;102408.25;5095082;28;20046;-67
2023/04/09 09:43:59;;;;;;;34.05;22.88;;;;;;;11.85;64.73;102404.72;5096076;28;20055;-66
2023/04/09 09:46:28;;;;;;;33.20;22.33;;;;;;;11.85;64.47;102393.94;5100107;28;20119;-67
2023/04/09 09:48:56;;;;;;;35.55;23.23;;;;;;;11.86;64.63;102399.13;5097524;28;20043;-66
2023/04/09 09:51:27;;;;;;;31.15;21.02;;;;;;;11.91;65.16;102398.56;5099667;28;20166;-67
2023/04/09 09:53:56;;;;;;;32.15;21.23;;;;;;;11.93;65.19;102391.97;5100244;28;20098;-66
2023/04/09 09:56:31;;;;;;;28.92;20.80;;;;;;;11.95;65.00;102391.75;5100619;28;20051;-66
2023/04/09 09:59:07;;;;;;;29.65;20.13;;;;;;;11.99;64.76;102384.97;5101985;28;20062;-66
2023/04/09 10:01:35;;;;;;;30.10;21.75;;;;;;;11.98;64.59;102380.59;5099029;28;20080;-66
2023/04/09 10:04:06;;;;;;;27.38;19.58;;;;;;;12.01;64.72;102370.28;5101372;28;20048;-66
2023/04/09 10:06:34;;;;;;;29.08;18.63;;;;;;;12.20;65.31;102373.28;5097915;28;20048;-68
2023/04/09 10:09:05;;;;;;;26.85;19.30;;;;;;;12.19;64.69;102377.84;5098009;28;20049;-67
2023/04/09 10:11:35;;;;;;;29.90;20.42;;;;;;;12.17;64.35;102376.38;5100502;28;20077;-66
2023/04/09 10:14:05;;;;;;;28.65;19.27;;;;;;;12.28;64.64;102375.84;5099421;28;20107;-66
2023/04/09 10:16:33;;;;;;;25.25;18.08;;;;;;;12.32;64.73;102371.72;5100534;28;20066;-67
2023/04/09 10:19:02;;;;;;;27.23;18.55;;;;;;;12.34;64.94;102369.66;5114986;28;20150;-67
2023/04/09 10:21:38;;;;;;;25.45;18.00;;;;;;;12.39;64.76;102368.06;5113795;28;20044;-61
2023/04/09 10:24:09;;;;;;;21.58;16.23;;;;;;;12.50;65.26;102368.53;5116779;28;20051;-66
2023/04/09 10:26:40;;;;;;;25.10;16.90;;;;;;;12.48;64.78;102362.50;5115185;27;20765;-66
2023/04/09 10:29:13;;;;;;;22.58;16.77;;;;;;;12.46;64.29;102351.09;5119651;28;20046;-66
2023/04/09 10:31:54;;;;;;;24.92;17.13;;;;;;;12.47;64.22;102348.19;5120570;28;20063;-66
2023/04/09 10:34:26;;;;;;;23.35;16.70;;;;;;;12.49;64.38;102350.69;5117450;28;20058;-66
2023/04/09 10:36:57;;;;;;;21.67;17.02;;;;;;;12.51;64.23;102354.03;5121089;28;20082;-66
2023/04/09 10:39:27;;;;;;;22.63;15.85;;;;;;;12.55;64.13;102350.72;5121776;28;20091;-65
2023/04/09 10:41:56;;;;;;;21.25;15.13;;;;;;;12.56;64.99;102346.16;5118239;27;20085;-68
2023/04/09 10:44:26;;;;;;;21.85;15.50;;;;;;;12.64;65.33;102344.16;5120057;28;20054;-65
2023/04/09 10:46:54;;;;;;;25.73;14.82;;;;;;;12.76;65.60;102341.72;5120151;28;20035;-63
2023/04/09 10:49:24;;;;;;;21.25;14.57;;;;;;;12.84;65.50;102338.03;5122988;28;20144;-66
2023/04/09 10:51:53;;;;;;;19.35;13.25;;;;;;;12.98;65.36;102343.28;5117455;28;20066;-64
2023/04/09 10:54:44;;;;;;;18.75;13.18;;;;;;;13.00;64.54;102335.81;5122149;28;20116;-69
2023/04/09 10:57:17;;;;;;;19.42;13.82;;;;;;;12.98;65.30;102329.78;5117368;28;20101;-69
2023/04/09 10:59:48;;;;;;;21.38;13.65;;;;;;;13.12;64.65;102327.16;5119532;28;20575;-66
2023/04/09 11:02:48;;;;;;;19.35;13.90;;;;;;;13.26;64.42;102323.47;5119601;28;20075;-70
2023/04/09 11:05:21;;;;;;;20.05;14.07;;;;;;;13.36;63.72;102323.91;5112167;28;20040;-69
2023/04/09 11:07:54;;;;;;;20.20;13.60;;;;;;;13.57;63.15;102321.06;5112687;28;20078;-69
2023/04/09 11:10:22;;;;;;;22.70;14.02;;;;;;;13.50;63.87;102311.28;5116012;28;20115;-71
2023/04/09 11:12:50;;;;;;;20.40;13.38;;;;;;;13.48;63.46;102316.06;5112488;28;20074;-70
2023/04/09 11:15:20;;;;;;;18.20;12.60;;;;;;;13.44;63.03;102310.22;5113296;28;20404;-71
2023/04/09 11:17:48;;;;;;;16.95;13.27;;;;;;;13.36;63.08;102305.03;5114773;28;20052;-71